sensor_id;sensor_type;location;lat;lon;timestamp;temperature;humidity
46364;DHT22;32071;49.036;9.344;2022-09-14T00:00:50;18.80;99.90
46364;DHT22;32071;49.036;9.344;2022-09-14T00:03:16;18.70;99.90
46364;DHT22;32071;49.036;9.344;2022-09-14T00:05:42;18.60;99.90
46364;DHT22;32071;49.036;9.344;2022-09-14T00:08:08;18.60;99.90
46364;DHT22;32071;49.036;9.344;2022-09-14T00:10:38;18.50;99.90
46364;DHT22;32071;49.036;9.344;2022-09-14T00:13:04;18.50;99.90
46364;DHT22;32071;49.036;9.344;2022-09-14T00:15:30;18.40;99.90
46364;DHT22;32071;49.036;9.344;2022-09-14T00:17:56;18.40;99.90
46364;DHT22;32071;49.036;9.344;2022-09-14T00:20:21;18.40;99.90
46364;DHT22;32071;49.036;9.344;2022-09-14T00:22:47;18.40;99.90
46364;DHT22;32071;49.036;9.344;2022-09-14T00:25:13;18.40;99.90
46364;DHT22;32071;49.036;9.344;2022-09-14T00:27:38;18.30;99.90
46364;DHT22;32071;49.036;9.344;2022-09-14T00:30:04;18.30;99.90
46364;DHT22;32071;49.036;9.344;2022-09-14T00:32:30;18.40;99.90
46364;DHT22;32071;49.036;9.344;2022-09-14T00:34:56;18.40;99.90
46364;DHT22;32071;49.036;9.344;2022-09-14T00:37:21;18.40;99.90
46364;DHT22;32071;49.036;9.344;2022-09-14T00:39:47;18.40;99.90
46364;DHT22;32071;49.036;9.344;2022-09-14T00:42:15;18.50;99.90
46364;DHT22;32071;49.036;9.344;2022-09-14T00:47:13;18.60;99.90
46364;DHT22;32071;49.036;9.344;2022-09-14T00:49:41;18.60;99.90
46364;DHT22;32071;49.036;9.344;2022-09-14T00:52:15;18.60;99.90
46364;DHT22;32071;49.036;9.344;2022-09-14T00:54:45;18.70;99.90
46364;DHT22;32071;49.036;9.344;2022-09-14T00:57:11;18.80;99.90
46364;DHT22;32071;49.036;9.344;2022-09-14T00:59:38;18.80;99.90
46364;DHT22;32071;49.036;9.344;2022-09-14T01:02:07;18.80;99.90
46364;DHT22;32071;49.036;9.344;2022-09-14T01:04:33;18.80;99.90
46364;DHT22;32071;49.036;9.344;2022-09-14T01:07:14;18.80;99.90
46364;DHT22;32071;49.036;9.344;2022-09-14T01:09:58;18.90;99.90
46364;DHT22;32071;49.036;9.344;2022-09-14T01:18:15;18.90;99.90
46364;DHT22;32071;49.036;9.344;2022-09-14T01:21:08;18.90;99.90
46364;DHT22;32071;49.036;9.344;2022-09-14T01:24:00;19.00;99.90
46364;DHT22;32071;49.036;9.344;2022-09-14T01:29:51;19.00;99.90
46364;DHT22;32071;49.036;9.344;2022-09-14T01:32:29;19.00;99.90
46364;DHT22;32071;49.036;9.344;2022-09-14T01:40:32;19.00;99.90
46364;DHT22;32071;49.036;9.344;2022-09-14T01:43:05;19.00;99.90
46364;DHT22;32071;49.036;9.344;2022-09-14T01:45:32;19.00;99.90
46364;DHT22;32071;49.036;9.344;2022-09-14T01:48:04;19.00;99.90
46364;DHT22;32071;49.036;9.344;2022-09-14T01:50:45;19.00;99.90
46364;DHT22;32071;49.036;9.344;2022-09-14T01:55:47;19.00;99.90
46364;DHT22;32071;49.036;9.344;2022-09-14T01:58:47;19.10;99.90
46364;DHT22;32071;49.036;9.344;2022-09-14T02:01:19;19.20;99.90
46364;DHT22;32071;49.036;9.344;2022-09-14T02:03:50;19.20;99.90
46364;DHT22;32071;49.036;9.344;2022-09-14T02:06:27;19.10;99.90
46364;DHT22;32071;49.036;9.344;2022-09-14T02:08:54;19.00;99.90
46364;DHT22;32071;49.036;9.344;2022-09-14T02:11:20;18.80;99.90
46364;DHT22;32071;49.036;9.344;2022-09-14T02:13:45;18.70;99.90
46364;DHT22;32071;49.036;9.344;2022-09-14T02:16:12;18.50;99.90
46364;DHT22;32071;49.036;9.344;2022-09-14T02:18:39;18.30;99.90
46364;DHT22;32071;49.036;9.344;2022-09-14T02:21:11;18.20;99.90
46364;DHT22;32071;49.036;9.344;2022-09-14T02:23:37;18.10;99.90
46364;DHT22;32071;49.036;9.344;2022-09-14T02:26:03;18.10;99.90
46364;DHT22;32071;49.036;9.344;2022-09-14T02:28:29;18.10;99.90
46364;DHT22;32071;49.036;9.344;2022-09-14T02:31:12;18.00;99.90
46364;DHT22;32071;49.036;9.344;2022-09-14T02:36:22;17.90;99.90
46364;DHT22;32071;49.036;9.344;2022-09-14T02:39:04;17.90;99.90
46364;DHT22;32071;49.036;9.344;2022-09-14T02:41:48;17.80;99.90
46364;DHT22;32071;49.036;9.344;2022-09-14T02:44:28;17.80;99.90
46364;DHT22;32071;49.036;9.344;2022-09-14T02:47:10;17.70;99.90
46364;DHT22;32071;49.036;9.344;2022-09-14T02:49:50;17.70;99.90
46364;DHT22;32071;49.036;9.344;2022-09-14T02:52:50;17.70;99.90
46364;DHT22;32071;49.036;9.344;2022-09-14T02:55:20;17.70;99.90
46364;DHT22;32071;49.036;9.344;2022-09-14T02:58:05;17.70;99.90
46364;DHT22;32071;49.036;9.344;2022-09-14T03:00:34;17.60;99.90
46364;DHT22;32071;49.036;9.344;2022-09-14T03:03:01;17.70;99.90
46364;DHT22;32071;49.036;9.344;2022-09-14T03:05:27;17.60;99.90
46364;DHT22;32071;49.036;9.344;2022-09-14T03:07:53;17.60;99.90
46364;DHT22;32071;49.036;9.344;2022-09-14T03:10:19;17.60;99.90
46364;DHT22;32071;49.036;9.344;2022-09-14T03:12:44;17.60;99.90
46364;DHT22;32071;49.036;9.344;2022-09-14T03:15:10;17.60;99.90
46364;DHT22;32071;49.036;9.344;2022-09-14T03:17:35;17.60;99.90
46364;DHT22;32071;49.036;9.344;2022-09-14T03:20:01;17.60;99.90
46364;DHT22;32071;49.036;9.344;2022-09-14T03:22:28;17.60;99.90
46364;DHT22;32071;49.036;9.344;2022-09-14T03:24:53;17.50;99.90
46364;DHT22;32071;49.036;9.344;2022-09-14T03:27:19;17.50;99.90
46364;DHT22;32071;49.036;9.344;2022-09-14T03:29:44;17.60;99.90
46364;DHT22;32071;49.036;9.344;2022-09-14T03:32:10;17.60;99.90
46364;DHT22;32071;49.036;9.344;2022-09-14T03:34:36;17.60;99.90
46364;DHT22;32071;49.036;9.344;2022-09-14T03:37:02;17.60;99.90
46364;DHT22;32071;49.036;9.344;2022-09-14T03:39:27;17.50;99.90
46364;DHT22;32071;49.036;9.344;2022-09-14T03:41:53;17.50;99.90
46364;DHT22;32071;49.036;9.344;2022-09-14T03:44:19;17.50;99.90
46364;DHT22;32071;49.036;9.344;2022-09-14T03:46:45;17.50;99.90
46364;DHT22;32071;49.036;9.344;2022-09-14T03:49:10;17.50;99.90
46364;DHT22;32071;49.036;9.344;2022-09-14T03:51:36;17.50;99.90
46364;DHT22;32071;49.036;9.344;2022-09-14T03:54:01;17.60;99.90
46364;DHT22;32071;49.036;9.344;2022-09-14T03:56:27;17.60;99.90
46364;DHT22;32071;49.036;9.344;2022-09-14T03:58:52;17.60;99.90
46364;DHT22;32071;49.036;9.344;2022-09-14T04:01:20;17.50;99.90
46364;DHT22;32071;49.036;9.344;2022-09-14T04:03:47;17.50;99.90
46364;DHT22;32071;49.036;9.344;2022-09-14T04:06:13;17.60;99.90
46364;DHT22;32071;49.036;9.344;2022-09-14T04:08:41;17.60;99.90
46364;DHT22;32071;49.036;9.344;2022-09-14T04:11:16;17.60;99.90
46364;DHT22;32071;49.036;9.344;2022-09-14T04:13:43;17.60;99.90
46364;DHT22;32071;49.036;9.344;2022-09-14T04:16:09;17.60;99.90
46364;DHT22;32071;49.036;9.344;2022-09-14T04:18:35;17.60;99.90
46364;DHT22;32071;49.036;9.344;2022-09-14T04:21:03;17.60;99.90
46364;DHT22;32071;49.036;9.344;2022-09-14T04:23:30;17.60;99.90
46364;DHT22;32071;49.036;9.344;2022-09-14T04:25:56;17.60;99.90
46364;DHT22;32071;49.036;9.344;2022-09-14T04:28:22;17.50;99.90
46364;DHT22;32071;49.036;9.344;2022-09-14T04:30:55;17.60;99.90
46364;DHT22;32071;49.036;9.344;2022-09-14T04:33:21;17.50;99.90
46364;DHT22;32071;49.036;9.344;2022-09-14T04:36:01;17.60;99.90
46364;DHT22;32071;49.036;9.344;2022-09-14T04:38:28;17.50;99.90
46364;DHT22;32071;49.036;9.344;2022-09-14T04:40:54;17.60;99.90
46364;DHT22;32071;49.036;9.344;2022-09-14T04:43:20;17.50;99.90
46364;DHT22;32071;49.036;9.344;2022-09-14T04:45:46;17.50;99.90
46364;DHT22;32071;49.036;9.344;2022-09-14T04:48:11;17.50;99.90
46364;DHT22;32071;49.036;9.344;2022-09-14T04:50:37;17.60;99.90
46364;DHT22;32071;49.036;9.344;2022-09-14T04:53:02;17.60;99.90
46364;DHT22;32071;49.036;9.344;2022-09-14T04:55:28;17.60;99.90
46364;DHT22;32071;49.036;9.344;2022-09-14T04:57:54;17.60;99.90
46364;DHT22;32071;49.036;9.344;2022-09-14T05:00:19;17.50;99.90
46364;DHT22;32071;49.036;9.344;2022-09-14T05:02:45;17.50;99.90
46364;DHT22;32071;49.036;9.344;2022-09-14T05:05:11;17.40;99.90
46364;DHT22;32071;49.036;9.344;2022-09-14T05:07:36;17.40;99.90
46364;DHT22;32071;49.036;9.344;2022-09-14T05:10:03;17.40;99.90
46364;DHT22;32071;49.036;9.344;2022-09-14T05:12:29;17.40;99.90
46364;DHT22;32071;49.036;9.344;2022-09-14T05:14:54;17.40;99.90
46364;DHT22;32071;49.036;9.344;2022-09-14T05:17:20;17.40;99.90
46364;DHT22;32071;49.036;9.344;2022-09-14T05:19:45;17.40;99.90
46364;DHT22;32071;49.036;9.344;2022-09-14T05:22:11;17.40;99.90
46364;DHT22;32071;49.036;9.344;2022-09-14T05:24:36;17.40;99.90
46364;DHT22;32071;49.036;9.344;2022-09-14T05:27:02;17.40;99.90
46364;DHT22;32071;49.036;9.344;2022-09-14T05:29:28;17.30;99.90
46364;DHT22;32071;49.036;9.344;2022-09-14T05:31:54;17.30;99.90
46364;DHT22;32071;49.036;9.344;2022-09-14T05:34:19;17.30;99.90
46364;DHT22;32071;49.036;9.344;2022-09-14T05:36:45;17.40;99.90
46364;DHT22;32071;49.036;9.344;2022-09-14T05:39:11;17.40;99.90
46364;DHT22;32071;49.036;9.344;2022-09-14T05:41:37;17.40;99.90
46364;DHT22;32071;49.036;9.344;2022-09-14T05:44:02;17.50;99.90
46364;DHT22;32071;49.036;9.344;2022-09-14T05:46:28;17.40;99.90
46364;DHT22;32071;49.036;9.344;2022-09-14T05:48:53;17.50;99.90
46364;DHT22;32071;49.036;9.344;2022-09-14T05:51:21;17.50;99.90
46364;DHT22;32071;49.036;9.344;2022-09-14T05:53:52;17.60;99.90
46364;DHT22;32071;49.036;9.344;2022-09-14T05:56:19;17.70;99.90
46364;DHT22;32071;49.036;9.344;2022-09-14T05:58:45;17.70;99.90
46364;DHT22;32071;49.036;9.344;2022-09-14T06:01:22;17.70;99.90
46364;DHT22;32071;49.036;9.344;2022-09-14T06:03:48;17.70;99.90
46364;DHT22;32071;49.036;9.344;2022-09-14T06:06:17;17.80;99.90
46364;DHT22;32071;49.036;9.344;2022-09-14T06:08:44;17.70;99.90
46364;DHT22;32071;49.036;9.344;2022-09-14T06:11:10;17.80;99.90
46364;DHT22;32071;49.036;9.344;2022-09-14T06:13:36;17.80;99.90
46364;DHT22;32071;49.036;9.344;2022-09-14T06:18:30;17.90;99.90
46364;DHT22;32071;49.036;9.344;2022-09-14T06:20:56;17.90;99.90
46364;DHT22;32071;49.036;9.344;2022-09-14T06:23:21;17.90;99.90
46364;DHT22;32071;49.036;9.344;2022-09-14T06:25:47;18.00;99.90
46364;DHT22;32071;49.036;9.344;2022-09-14T06:28:13;18.10;99.90
46364;DHT22;32071;49.036;9.344;2022-09-14T06:30:42;18.10;99.90
46364;DHT22;32071;49.036;9.344;2022-09-14T06:33:07;18.20;99.90
46364;DHT22;32071;49.036;9.344;2022-09-14T06:35:33;18.20;99.90
46364;DHT22;32071;49.036;9.344;2022-09-14T06:37:58;18.30;99.90
46364;DHT22;32071;49.036;9.344;2022-09-14T06:40:24;18.40;99.90
46364;DHT22;32071;49.036;9.344;2022-09-14T06:42:51;18.50;99.90
46364;DHT22;32071;49.036;9.344;2022-09-14T06:45:17;18.50;99.90
46364;DHT22;32071;49.036;9.344;2022-09-14T06:47:42;18.50;99.90
46364;DHT22;32071;49.036;9.344;2022-09-14T06:50:08;18.60;99.90
46364;DHT22;32071;49.036;9.344;2022-09-14T06:52:35;18.60;99.90
46364;DHT22;32071;49.036;9.344;2022-09-14T06:55:01;18.60;99.90
46364;DHT22;32071;49.036;9.344;2022-09-14T06:57:27;18.70;99.90
46364;DHT22;32071;49.036;9.344;2022-09-14T06:59:52;18.70;99.90
46364;DHT22;32071;49.036;9.344;2022-09-14T07:02:18;18.80;99.90
46364;DHT22;32071;49.036;9.344;2022-09-14T07:04:44;18.80;99.90
46364;DHT22;32071;49.036;9.344;2022-09-14T07:07:09;18.80;99.90
46364;DHT22;32071;49.036;9.344;2022-09-14T07:09:35;18.80;99.90
46364;DHT22;32071;49.036;9.344;2022-09-14T07:12:01;18.90;99.90
46364;DHT22;32071;49.036;9.344;2022-09-14T07:14:26;19.00;99.90
46364;DHT22;32071;49.036;9.344;2022-09-14T07:16:52;19.00;99.90
46364;DHT22;32071;49.036;9.344;2022-09-14T07:19:17;19.00;99.90
46364;DHT22;32071;49.036;9.344;2022-09-14T07:21:43;19.00;99.90
46364;DHT22;32071;49.036;9.344;2022-09-14T07:24:11;19.10;99.90
46364;DHT22;32071;49.036;9.344;2022-09-14T07:26:39;19.10;99.90
46364;DHT22;32071;49.036;9.344;2022-09-14T07:29:13;19.10;99.90
46364;DHT22;32071;49.036;9.344;2022-09-14T07:31:52;19.10;99.90
46364;DHT22;32071;49.036;9.344;2022-09-14T07:34:21;19.20;99.90
46364;DHT22;32071;49.036;9.344;2022-09-14T07:36:48;19.30;99.90
46364;DHT22;32071;49.036;9.344;2022-09-14T07:39:15;19.40;99.90
46364;DHT22;32071;49.036;9.344;2022-09-14T07:41:41;19.50;99.90
46364;DHT22;32071;49.036;9.344;2022-09-14T07:44:08;19.60;99.90
46364;DHT22;32071;49.036;9.344;2022-09-14T07:46:40;19.70;99.90
46364;DHT22;32071;49.036;9.344;2022-09-14T07:49:07;19.80;99.90
46364;DHT22;32071;49.036;9.344;2022-09-14T07:51:33;19.90;99.90
46364;DHT22;32071;49.036;9.344;2022-09-14T07:53:59;20.10;99.90
46364;DHT22;32071;49.036;9.344;2022-09-14T07:56:26;20.30;99.90
46364;DHT22;32071;49.036;9.344;2022-09-14T07:58:53;20.50;99.90
46364;DHT22;32071;49.036;9.344;2022-09-14T08:01:20;20.60;99.90
46364;DHT22;32071;49.036;9.344;2022-09-14T08:03:46;20.70;99.90
46364;DHT22;32071;49.036;9.344;2022-09-14T08:06:16;20.80;99.90
46364;DHT22;32071;49.036;9.344;2022-09-14T08:08:44;20.90;99.90
46364;DHT22;32071;49.036;9.344;2022-09-14T08:11:12;21.00;99.90
46364;DHT22;32071;49.036;9.344;2022-09-14T08:13:44;21.20;99.90
46364;DHT22;32071;49.036;9.344;2022-09-14T08:16:11;21.30;99.90
46364;DHT22;32071;49.036;9.344;2022-09-14T08:18:37;21.20;99.90
46364;DHT22;32071;49.036;9.344;2022-09-14T08:21:05;21.20;99.90
46364;DHT22;32071;49.036;9.344;2022-09-14T08:23:31;21.20;99.90
46364;DHT22;32071;49.036;9.344;2022-09-14T08:26:02;21.30;99.90
46364;DHT22;32071;49.036;9.344;2022-09-14T08:28:28;21.30;99.90
46364;DHT22;32071;49.036;9.344;2022-09-14T08:30:53;21.30;99.90
46364;DHT22;32071;49.036;9.344;2022-09-14T08:33:19;21.30;99.90
46364;DHT22;32071;49.036;9.344;2022-09-14T08:35:44;21.40;99.90
46364;DHT22;32071;49.036;9.344;2022-09-14T08:38:10;21.60;99.90
46364;DHT22;32071;49.036;9.344;2022-09-14T08:40:45;21.70;99.90
46364;DHT22;32071;49.036;9.344;2022-09-14T08:43:12;21.80;99.90
46364;DHT22;32071;49.036;9.344;2022-09-14T08:45:41;21.90;99.90
46364;DHT22;32071;49.036;9.344;2022-09-14T08:48:23;21.90;99.90
46364;DHT22;32071;49.036;9.344;2022-09-14T08:50:51;21.90;99.90
46364;DHT22;32071;49.036;9.344;2022-09-14T08:53:23;21.90;99.90
46364;DHT22;32071;49.036;9.344;2022-09-14T08:56:07;21.90;99.90
46364;DHT22;32071;49.036;9.344;2022-09-14T09:01:25;21.80;99.90
46364;DHT22;32071;49.036;9.344;2022-09-14T09:06:39;21.90;99.90
46364;DHT22;32071;49.036;9.344;2022-09-14T09:11:57;22.10;99.90
46364;DHT22;32071;49.036;9.344;2022-09-14T09:15:13;22.20;99.90
46364;DHT22;32071;49.036;9.344;2022-09-14T09:17:33;22.20;99.90
46364;DHT22;32071;49.036;9.344;2022-09-14T09:23:09;22.10;99.90
46364;DHT22;32071;49.036;9.344;2022-09-14T09:26:10;22.20;99.90
46364;DHT22;32071;49.036;9.344;2022-09-14T09:28:48;22.10;99.90
46364;DHT22;32071;49.036;9.344;2022-09-14T09:31:15;22.10;99.90
46364;DHT22;32071;49.036;9.344;2022-09-14T09:33:41;22.20;99.90
46364;DHT22;32071;49.036;9.344;2022-09-14T09:36:12;22.20;99.90
46364;DHT22;32071;49.036;9.344;2022-09-14T09:38:38;22.30;99.90
46364;DHT22;32071;49.036;9.344;2022-09-14T09:41:22;22.30;99.90
46364;DHT22;32071;49.036;9.344;2022-09-14T09:46:25;22.70;99.90
46364;DHT22;32071;49.036;9.344;2022-09-14T09:48:51;22.80;99.90
46364;DHT22;32071;49.036;9.344;2022-09-14T09:51:26;22.90;99.90
46364;DHT22;32071;49.036;9.344;2022-09-14T09:53:57;23.00;99.90
46364;DHT22;32071;49.036;9.344;2022-09-14T09:56:27;23.10;99.90
46364;DHT22;32071;49.036;9.344;2022-09-14T09:58:53;23.00;99.90
46364;DHT22;32071;49.036;9.344;2022-09-14T10:01:31;23.10;99.90
46364;DHT22;32071;49.036;9.344;2022-09-14T10:06:48;23.30;99.90
46364;DHT22;32071;49.036;9.344;2022-09-14T10:09:17;23.40;99.90
46364;DHT22;32071;49.036;9.344;2022-09-14T10:11:44;23.50;99.90
46364;DHT22;32071;49.036;9.344;2022-09-14T10:14:33;23.90;99.90
46364;DHT22;32071;49.036;9.344;2022-09-14T10:19:30;23.80;99.90
46364;DHT22;32071;49.036;9.344;2022-09-14T10:22:39;23.60;99.90
46364;DHT22;32071;49.036;9.344;2022-09-14T10:25:00;23.60;99.90
46364;DHT22;32071;49.036;9.344;2022-09-14T10:28:02;23.80;99.90
46364;DHT22;32071;49.036;9.344;2022-09-14T10:30:41;24.00;99.90
46364;DHT22;32071;49.036;9.344;2022-09-14T10:33:11;23.90;99.90
46364;DHT22;32071;49.036;9.344;2022-09-14T10:36:09;23.90;99.90
46364;DHT22;32071;49.036;9.344;2022-09-14T10:44:25;23.90;99.90
46364;DHT22;32071;49.036;9.344;2022-09-14T10:50:14;24.00;99.90
46364;DHT22;32071;49.036;9.344;2022-09-14T11:15:25;25.00;99.90
46364;DHT22;32071;49.036;9.344;2022-09-14T11:20:41;25.60;99.90
46364;DHT22;32071;49.036;9.344;2022-09-14T11:26:24;25.40;99.90
46364;DHT22;32071;49.036;9.344;2022-09-14T11:28:59;25.20;99.90
46364;DHT22;32071;49.036;9.344;2022-09-14T11:31:27;25.10;99.90
46364;DHT22;32071;49.036;9.344;2022-09-14T11:34:18;25.10;99.90
46364;DHT22;32071;49.036;9.344;2022-09-14T11:36:56;25.10;99.90
46364;DHT22;32071;49.036;9.344;2022-09-14T11:39:36;25.20;99.90
46364;DHT22;32071;49.036;9.344;2022-09-14T11:42:11;25.40;99.90
46364;DHT22;32071;49.036;9.344;2022-09-14T11:44:42;25.60;99.90
46364;DHT22;32071;49.036;9.344;2022-09-14T11:47:19;25.90;99.90
46364;DHT22;32071;49.036;9.344;2022-09-14T11:50:04;25.90;99.90
46364;DHT22;32071;49.036;9.344;2022-09-14T11:52:32;25.80;99.90
46364;DHT22;32071;49.036;9.344;2022-09-14T11:55:00;25.80;99.90
46364;DHT22;32071;49.036;9.344;2022-09-14T11:57:28;25.70;99.90
46364;DHT22;32071;49.036;9.344;2022-09-14T11:59:58;26.00;99.90
46364;DHT22;32071;49.036;9.344;2022-09-14T12:12:54;26.30;99.90
46364;DHT22;32071;49.036;9.344;2022-09-14T12:18:13;26.10;99.90
46364;DHT22;32071;49.036;9.344;2022-09-14T12:20:40;25.90;99.90
46364;DHT22;32071;49.036;9.344;2022-09-14T12:28:46;25.60;99.90
46364;DHT22;32071;49.036;9.344;2022-09-14T12:34:21;25.60;99.90
46364;DHT22;32071;49.036;9.344;2022-09-14T12:39:25;25.50;99.90
46364;DHT22;32071;49.036;9.344;2022-09-14T12:44:32;25.20;99.90
46364;DHT22;32071;49.036;9.344;2022-09-14T12:49:51;25.00;99.90
46364;DHT22;32071;49.036;9.344;2022-09-14T13:04:10;24.60;99.90
46364;DHT22;32071;49.036;9.344;2022-09-14T13:06:16;24.60;99.90
46364;DHT22;32071;49.036;9.344;2022-09-14T13:08:48;24.50;99.90
46364;DHT22;32071;49.036;9.344;2022-09-14T13:11:25;24.40;99.90
46364;DHT22;32071;49.036;9.344;2022-09-14T13:13:54;24.40;99.90
46364;DHT22;32071;49.036;9.344;2022-09-14T13:16:29;24.30;99.90
46364;DHT22;32071;49.036;9.344;2022-09-14T13:19:01;24.10;99.90
46364;DHT22;32071;49.036;9.344;2022-09-14T13:21:27;23.90;99.90
46364;DHT22;32071;49.036;9.344;2022-09-14T13:23:53;23.60;99.90
46364;DHT22;32071;49.036;9.344;2022-09-14T13:26:29;23.30;99.90
46364;DHT22;32071;49.036;9.344;2022-09-14T13:28:58;22.60;99.90
46364;DHT22;32071;49.036;9.344;2022-09-14T13:31:34;21.80;99.90
46364;DHT22;32071;49.036;9.344;2022-09-14T13:34:00;21.00;99.90
46364;DHT22;32071;49.036;9.344;2022-09-14T13:36:39;19.90;99.90
46364;DHT22;32071;49.036;9.344;2022-09-14T13:41:48;18.70;99.90
46364;DHT22;32071;49.036;9.344;2022-09-14T13:44:14;18.30;99.90
46364;DHT22;32071;49.036;9.344;2022-09-14T13:46:40;18.10;99.90
46364;DHT22;32071;49.036;9.344;2022-09-14T13:49:06;18.00;99.90
46364;DHT22;32071;49.036;9.344;2022-09-14T13:51:32;18.00;99.90
46364;DHT22;32071;49.036;9.344;2022-09-14T13:54:24;18.10;99.90
46364;DHT22;32071;49.036;9.344;2022-09-14T13:57:10;18.20;99.90
46364;DHT22;32071;49.036;9.344;2022-09-14T14:02:49;18.40;99.90
46364;DHT22;32071;49.036;9.344;2022-09-14T14:05:39;18.50;99.90
46364;DHT22;32071;49.036;9.344;2022-09-14T14:08:34;18.50;99.90
46364;DHT22;32071;49.036;9.344;2022-09-14T14:11:05;18.60;99.90
46364;DHT22;32071;49.036;9.344;2022-09-14T14:13:35;18.60;99.90
46364;DHT22;32071;49.036;9.344;2022-09-14T14:16:22;18.60;99.90
46364;DHT22;32071;49.036;9.344;2022-09-14T14:18:57;18.60;99.90
46364;DHT22;32071;49.036;9.344;2022-09-14T14:24:17;18.70;99.90
46364;DHT22;32071;49.036;9.344;2022-09-14T14:26:48;18.80;99.90
46364;DHT22;32071;49.036;9.344;2022-09-14T14:29:14;19.00;99.90
46364;DHT22;32071;49.036;9.344;2022-09-14T14:31:40;19.00;99.90
46364;DHT22;32071;49.036;9.344;2022-09-14T14:34:18;19.10;99.90
46364;DHT22;32071;49.036;9.344;2022-09-14T14:36:44;19.20;99.90
46364;DHT22;32071;49.036;9.344;2022-09-14T14:39:12;19.30;99.90
46364;DHT22;32071;49.036;9.344;2022-09-14T14:41:38;19.40;99.90
46364;DHT22;32071;49.036;9.344;2022-09-14T14:44:03;19.50;99.90
46364;DHT22;32071;49.036;9.344;2022-09-14T14:46:29;19.60;99.90
46364;DHT22;32071;49.036;9.344;2022-09-14T14:48:55;19.70;99.90
46364;DHT22;32071;49.036;9.344;2022-09-14T14:51:20;19.70;99.90
46364;DHT22;32071;49.036;9.344;2022-09-14T14:53:46;19.60;99.90
46364;DHT22;32071;49.036;9.344;2022-09-14T14:56:12;19.60;99.90
46364;DHT22;32071;49.036;9.344;2022-09-14T14:58:42;19.60;99.90
46364;DHT22;32071;49.036;9.344;2022-09-14T15:01:08;19.60;99.90
46364;DHT22;32071;49.036;9.344;2022-09-14T15:03:34;19.70;99.90
46364;DHT22;32071;49.036;9.344;2022-09-14T15:06:13;19.70;99.90
46364;DHT22;32071;49.036;9.344;2022-09-14T15:08:40;19.70;99.90
46364;DHT22;32071;49.036;9.344;2022-09-14T15:11:14;19.60;99.90
46364;DHT22;32071;49.036;9.344;2022-09-14T15:13:40;19.60;99.90
46364;DHT22;32071;49.036;9.344;2022-09-14T15:16:06;19.50;99.90
46364;DHT22;32071;49.036;9.344;2022-09-14T15:18:31;19.50;99.90
46364;DHT22;32071;49.036;9.344;2022-09-14T15:20:57;19.60;99.90
46364;DHT22;32071;49.036;9.344;2022-09-14T15:23:23;19.60;99.90
46364;DHT22;32071;49.036;9.344;2022-09-14T15:25:52;19.50;99.90
46364;DHT22;32071;49.036;9.344;2022-09-14T15:28:17;19.50;99.90
46364;DHT22;32071;49.036;9.344;2022-09-14T15:30:43;19.50;99.90
46364;DHT22;32071;49.036;9.344;2022-09-14T15:33:10;19.40;99.90
46364;DHT22;32071;49.036;9.344;2022-09-14T15:35:35;19.40;99.90
46364;DHT22;32071;49.036;9.344;2022-09-14T15:38:01;19.40;99.90
46364;DHT22;32071;49.036;9.344;2022-09-14T15:40:26;19.40;99.90
46364;DHT22;32071;49.036;9.344;2022-09-14T15:42:52;19.40;99.90
46364;DHT22;32071;49.036;9.344;2022-09-14T15:45:18;19.40;99.90
46364;DHT22;32071;49.036;9.344;2022-09-14T15:47:43;19.50;99.90
46364;DHT22;32071;49.036;9.344;2022-09-14T15:50:11;19.50;99.90
46364;DHT22;32071;49.036;9.344;2022-09-14T15:52:37;19.50;99.90
46364;DHT22;32071;49.036;9.344;2022-09-14T15:55:04;19.50;99.90
46364;DHT22;32071;49.036;9.344;2022-09-14T15:57:30;19.50;99.90
46364;DHT22;32071;49.036;9.344;2022-09-14T15:59:56;19.60;99.90
46364;DHT22;32071;49.036;9.344;2022-09-14T16:02:22;19.70;99.90
46364;DHT22;32071;49.036;9.344;2022-09-14T16:04:47;19.70;99.90
46364;DHT22;32071;49.036;9.344;2022-09-14T16:07:13;19.60;99.90
46364;DHT22;32071;49.036;9.344;2022-09-14T16:09:39;19.60;99.90
46364;DHT22;32071;49.036;9.344;2022-09-14T16:12:10;19.50;99.90
46364;DHT22;32071;49.036;9.344;2022-09-14T16:14:35;19.60;99.90
46364;DHT22;32071;49.036;9.344;2022-09-14T16:17:02;19.60;99.90
46364;DHT22;32071;49.036;9.344;2022-09-14T16:19:28;19.50;99.90
46364;DHT22;32071;49.036;9.344;2022-09-14T16:21:53;19.50;99.90
46364;DHT22;32071;49.036;9.344;2022-09-14T16:24:20;19.40;99.90
46364;DHT22;32071;49.036;9.344;2022-09-14T16:26:46;19.50;99.90
46364;DHT22;32071;49.036;9.344;2022-09-14T16:29:14;19.50;99.90
46364;DHT22;32071;49.036;9.344;2022-09-14T16:31:41;19.50;99.90
46364;DHT22;32071;49.036;9.344;2022-09-14T16:34:10;19.60;99.90
46364;DHT22;32071;49.036;9.344;2022-09-14T16:36:38;19.50;99.90
46364;DHT22;32071;49.036;9.344;2022-09-14T16:39:07;19.50;99.90
46364;DHT22;32071;49.036;9.344;2022-09-14T16:41:34;19.50;99.90
46364;DHT22;32071;49.036;9.344;2022-09-14T16:44:02;19.40;99.90
46364;DHT22;32071;49.036;9.344;2022-09-14T16:46:29;19.30;99.90
46364;DHT22;32071;49.036;9.344;2022-09-14T16:48:55;19.30;99.90
46364;DHT22;32071;49.036;9.344;2022-09-14T16:51:24;19.20;99.90
46364;DHT22;32071;49.036;9.344;2022-09-14T16:53:51;19.00;99.90
46364;DHT22;32071;49.036;9.344;2022-09-14T16:56:23;19.00;99.90
46364;DHT22;32071;49.036;9.344;2022-09-14T16:58:50;18.90;99.90
46364;DHT22;32071;49.036;9.344;2022-09-14T17:01:17;18.80;99.90
46364;DHT22;32071;49.036;9.344;2022-09-14T17:03:44;18.80;99.90
46364;DHT22;32071;49.036;9.344;2022-09-14T17:06:15;18.80;99.90
46364;DHT22;32071;49.036;9.344;2022-09-14T17:08:42;18.70;99.90
46364;DHT22;32071;49.036;9.344;2022-09-14T17:11:08;18.60;99.90
46364;DHT22;32071;49.036;9.344;2022-09-14T17:13:34;18.60;99.90
46364;DHT22;32071;49.036;9.344;2022-09-14T17:18:29;18.50;99.90
46364;DHT22;32071;49.036;9.344;2022-09-14T17:21:04;18.50;99.90
46364;DHT22;32071;49.036;9.344;2022-09-14T17:23:31;18.40;99.90
46364;DHT22;32071;49.036;9.344;2022-09-14T17:25:57;18.40;99.90
46364;DHT22;32071;49.036;9.344;2022-09-14T17:28:26;18.40;99.90
46364;DHT22;32071;49.036;9.344;2022-09-14T17:30:56;18.40;99.90
46364;DHT22;32071;49.036;9.344;2022-09-14T17:33:22;18.40;99.90
46364;DHT22;32071;49.036;9.344;2022-09-14T17:35:50;18.40;99.90
46364;DHT22;32071;49.036;9.344;2022-09-14T17:38:17;18.30;99.90
46364;DHT22;32071;49.036;9.344;2022-09-14T17:40:43;18.30;99.90
46364;DHT22;32071;49.036;9.344;2022-09-14T17:43:10;18.30;99.90
46364;DHT22;32071;49.036;9.344;2022-09-14T17:45:36;18.30;99.90
46364;DHT22;32071;49.036;9.344;2022-09-14T17:48:03;18.30;99.90
46364;DHT22;32071;49.036;9.344;2022-09-14T17:50:29;18.20;99.90
46364;DHT22;32071;49.036;9.344;2022-09-14T17:52:55;18.20;99.90
46364;DHT22;32071;49.036;9.344;2022-09-14T17:55:20;18.10;99.90
46364;DHT22;32071;49.036;9.344;2022-09-14T17:57:46;18.10;99.90